ハリファックス の空港の天気 - METARとTAF

ハリファックス国際空港 ( CYHZ / YHZ ) - カナダ ノバスコシア州ハリファックス
飛行場実況気象(Metar)
観測時間10/25 19:00 ADT (10/25 22:00 UTC)
風向・風速北 4m/s
視程10km以上
天気現象
全天の4割程度の雲 雲底高度 1250m
全天の8割程度の雲 雲底高度 7920m
気温4℃
湿度70%
気圧1025hPa
METARCYHZ 252200Z 01007KT 15SM SCT041 BKN260 04/M01 A3025 RMK SC4CS2 SLP250
過去の天気等 Google飛行場航空写真 Wunderground天気予報

過去48時間のMETAR

飛行場予報(TAF)
発表時間: 10/25 17:38 ADT (10/25 20:38 UTC)
予報対象時間: 25日18時 ADT ~ 26日15時 ADT
風向・風速北西 5m/s
視程10km以上
全天の4割程度の雲 雲底高度 1220m
全天の8割程度の雲 雲底高度 8530m
25日19時 ADT ~ 25日21時 ADT に徐々に
風向・風速北北東 5m/s
26日8時 ADT から
風向・風速北東 3m/s
視程10km以上
全天の4割程度の雲 雲底高度 3660m
26日12時 ADT ~ 26日14時 ADT に徐々に
風向・風速東 4m/s
26日14時 ADT から
風向・風速東 4m/s
視程10km以上
全天の8割程度の雲 雲底高度 910m
全天の8割程度の雲 雲底高度 2440m
TAF CYHZ 252038Z 2521/2618 32010KT P6SM SCT040 BKN280
BECMG 2522/2524 02010KT
FM261100 04005KT P6SM SCT120
BECMG 2615/2617 09007KT
FM261700 09007KT P6SM BKN030 BKN080 RMK NXT FCST BY 260000Z